Corte Madera (442) Station Data

Red Flag Warning: No
Fire Weather Zone: 258
SDGE Region: Mountain Empire
Lat/Lon: 32.783/-116.55

Observations

Time Wind Speed/Gust Temp(F) RH Fuel Moist Fuel Temp(F) Dewpt(F) Tmax(F) Tmin(F) Accum Precip 10-min Precip SL Press(mb)
5/24 8:20am 358 3 G 5 68° 35% - - 39° 69.1° 55.7° - - -
5/24 8:10am 343 4 G 5 68° 36% - - 40° 68° 55.7° - - -
5/24 8:00am 348 3 G 5 67° 34% - - 38° 67.9° 55.7° - - -
5/24 7:50am 318 4 G 5 67° 31% - - 35° 67.3° 55.7° - - -
5/24 7:40am 304 5 G 8 67° 28% - - 33° 67.3° 55.7° - - -
5/24 7:30am 331 4 G 7 64° 23% - - 26° 66.6° 55.7° - - -
5/24 7:20am 333 3 G 4 62° 24% - - 25° 66.6° 55.7° - - -
5/24 7:10am 336 3 G 5 60° 25% - - 24° 66.6° 55.7° - - -
5/24 7:00am 311 4 G 5 58° 24% - - 22° 66.6° 55.7° - - -
5/24 6:50am 339 3 G 4 58° 24% - - 22° 66.6° 55.7° - - -
5/24 6:40am 342 3 G 5 58° 25% - - 22° 66.6° 55.7° - - -
5/24 6:30am 331 4 G 5 58° 22% - - 20° 66.6° 55.7° - - -
5/24 6:20am 336 4 G 5 58° 22% - - 20° 66.6° 55.7° - - -
5/24 6:10am 341 3 G 4 57° 24% - - 20° 66.6° 55.7° - - -
5/24 6:00am 338 3 G 4 57° 24% - - 21° 66.6° 55.7° - - -
5/24 5:50am 339 4 G 5 56° 25% - - 21° 66.6° 55.7° - - -
5/24 5:40am 334 4 G 5 56° 25% - - 21° 66.6° 55.7° - - -
5/24 5:30am 338 4 G 5 57° 24% - - 21° 66.6° 56° - - -
5/24 5:20am 325 4 G 5 58° 23% - - 20° 66.6° 57.5° - - -
5/24 5:10am 327 3 G 4 59° 22% - - 20° 66.6° 57.7° - - -
5/24 5:00am 332 3 G 3 60° 20% - - 19° 66.6° 58.3° - - -
5/24 4:50am 333 3 G 3 60° 20% - - 19° 66.6° 58.3° - - -
5/24 4:40am 339 2 G 3 60° 20% - - 19° 66.6° 58.3° - - -
5/24 4:30am 351 3 G 3 60° 20% - - 20° 66.6° 58.3° - - -
5/24 4:20am 329 3 G 3 62° 19% - - 19° 66.6° 58.3° - - -
5/24 4:10am 337 3 G 3 62° 19% - - 19° 66.6° 58.3° - - -
5/24 4:00am 335 3 G 3 63° 18% - - 19° 66.6° 58.3° - - -
5/24 3:50am 347 3 G 3 65° 16% - - 17° 66.6° 58.3° - - -
5/24 3:40am 342 2 G 3 65° 15% - - 17° 66.6° 58.3° - - -
5/24 3:30am 324 2 G 4 64° 17% - - 18° 66.6° 58.3° - - -
5/24 3:20am 265 1 G 2 60° 22% - - 21° 66.6° 58.3° - - -
5/24 3:10am 297 2 G 3 59° 25% - - 23° 66.6° 58.3° - - -
5/24 3:00am 331 3 G 4 59° 25% - - 23° 66.6° 58.3° - - -
5/24 2:50am 337 3 G 4 60° 25% - - 23° 66.6° 58.3° - - -
5/24 2:40am 331 4 G 5 60° 24% - - 23° 66.6° 58.3° - - -
5/24 2:30am 326 3 G 4 61° 23% - - 23° 66.6° 58.3° - - -
5/24 2:20am 330 3 G 4 61° 24% - - 24° 66.6° 58.3° - - -
5/24 2:10am 329 3 G 4 60° 26% - - 25° 66.6° 58.3° - - -
5/24 2:00am 324 2 G 3 59° 29% - - 26° 66.6° 58.3° - - -
5/24 1:50am 327 3 G 4 59° 29% - - 27° 66.6° 58.3° - - -
5/24 1:40am 327 4 G 5 59° 28% - - 26° 66.6° 58.8° - - -
5/24 1:30am 324 4 G 5 60° 26% - - 25° 66.6° 59.3° - - -
5/24 1:20am 327 3 G 4 61° 25% - - 25° 66.6° 61.3° - - -
5/24 1:10am 335 3 G 4 63° 24% - - 26° 66.6° 61.6° - - -
5/24 1:00am 342 3 G 3 65° 23% - - 26° 66.6° 61.9° - - -
5/24 12:50am 6 3 G 5 66° 22% - - 26° 66.6° 61.9° - - -
5/24 12:40am 4 4 G 6 64° 22% - - 25° 65.8° 61.9° - - -
5/24 12:30am 348 2 G 3 63° 26% - - 27° 63.7° 61.9° - - -
5/24 12:20am 311 1 G 1 62° 27% - - 28° 62.9° 61.9° - - -
5/24 12:10am 326 2 G 3 63° 27% - - 28° 62.9° 62.2° - - -
5/24 12:00am 306 3 G 4 63° 27% - - 28° 87.1° 58.2° - - -
5/23 11:50pm 334 3 G 4 63° 26% - - 28° 87.1° 58.2° - - -
5/23 11:40pm 335 3 G 4 64° 27% - - 29° 87.1° 58.2° - - -
5/23 11:30pm 327 2 G 3 64° 29% - - 31° 87.1° 58.2° - - -
5/23 11:20pm 337 3 G 4 64° 29% - - 32° 87.1° 58.2° - - -
5/23 11:10pm 331 3 G 3 64° 30% - - 32° 87.1° 58.2° - - -
5/23 11:00pm 327 2 G 3 64° 32% - - 33° 87.1° 58.2° - - -
5/23 10:50pm 331 2 G 3 64° 33% - - 34° 87.1° 58.2° - - -
5/23 10:40pm 324 3 G 4 65° 37% - - 37° 87.1° 58.2° - - -
5/23 10:30pm 328 3 G 4 64° 39% - - 39° 87.1° 58.2° - - -
5/23 10:20pm 332 3 G 4 64° 42% - - 40° 87.1° 58.2° - - -
5/23 10:10pm 325 3 G 4 64° 45% - - 42° 87.1° 58.2° - - -
5/23 10:00pm 326 3 G 4 63° 48% - - 44° 87.1° 58.2° - - -
5/23 9:50pm 328 3 G 4 64° 50% - - 44° 87.1° 58.2° - - -
5/23 9:40pm 331 3 G 4 64° 49% - - 45° 87.1° 58.2° - - -
5/23 9:30pm 321 3 G 3 65° 50% - - 45° 87.1° 58.2° - - -
5/23 9:20pm 343 2 G 4 65° 49% - - 45° 87.1° 58.2° - - -
5/23 9:10pm 332 3 G 3 65° 48% - - 45° 87.1° 58.2° - - -
5/23 9:00pm 340 3 G 3 66° 47% - - 45° 87.1° 58.2° - - -
5/23 8:50pm 322 3 G 4 67° 46% - - 46° 87.1° 58.2° - - -
5/23 8:40pm 349 4 G 5 67° 47% - - 46° 87.1° 58.2° - - -
5/23 8:30pm 342 4 G 5 67° 52% - - 48° 87.1° 58.2° - - -
5/23 8:20pm 344 3 G 6 68° 48% - - 47° 87.1° 58.2° - - -
5/23 8:10pm 11 4 G 6 69° 45% - - 47° 87.1° 58.2° - - -
5/23 8:00pm 12 3 G 4 69° 47% - - 48° 87.1° 58.2° - - -
5/23 7:50pm 1 3 G 4 70° 46% - - 48° 87.1° 58.2° - - -
5/23 7:40pm 328 3 G 4 71° 43% - - 48° 87.1° 58.2° - - -
5/23 7:30pm 315 3 G 5 73° 41% - - 47° 87.1° 58.2° - - -
5/23 7:20pm 307 3 G 5 74° 38% - - 47° 87.1° 58.2° - - -
5/23 7:10pm 310 4 G 6 75° 36% - - 46° 87.1° 58.2° - - -
5/23 7:00pm 304 5 G 9 75° 36% - - 46° 87.1° 58.2° - - -
5/23 6:50pm 289 6 G 9 76° 36% - - 47° 87.1° 58.2° - - -
5/23 6:40pm 282 7 G 11 77° 35% - - 47° 87.1° 58.2° - - -
5/23 6:30pm 292 7 G 11 78° 32% - - 46° 87.1° 58.2° - - -
5/23 6:20pm 308 7 G 11 79° 29% - - 44° 87.1° 58.2° - - -
5/23 6:10pm 300 6 G 9 79° 28% - - 43° 87.1° 58.2° - - -
5/23 6:00pm 326 6 G 11 79° 27% - - 43° 87.1° 58.2° - - -
5/23 5:50pm 336 5 G 9 80° 27% - - 43° 87.1° 58.2° - - -
5/23 5:40pm 302 6 G 10 79° 31% - - 46° 87.1° 58.2° - - -
5/23 5:30pm 301 7 G 12 79° 33% - - 47° 87.1° 58.2° - - -
5/23 5:20pm 296 8 G 13 79° 34% - - 48° 87.1° 58.2° - - -
5/23 5:10pm 304 8 G 12 79° 33% - - 47° 87.1° 58.2° - - -
5/23 5:00pm 308 9 G 14 78° 32% - - 46° 87.1° 58.2° - - -
5/23 4:50pm 306 8 G 13 79° 32% - - 47° 87.1° 58.2° - - -
5/23 4:40pm 294 8 G 13 78° 35% - - 48° 87.1° 58.2° - - -
5/23 4:30pm 311 8 G 13 78° 37% - - 50° 87.1° 58.2° - - -
5/23 4:20pm 298 9 G 15 77° 38% - - 50° 87.1° 58.2° - - -
5/23 4:10pm 291 10 G 16 77° 39% - - 50° 87.1° 58.2° - - -
5/23 4:00pm 295 11 G 17 77° 39% - - 50° 87.1° 58.2° - - -
5/23 3:50pm 283 11 G 16 78° 40% - - 52° 87.1° 58.2° - - -
5/23 3:40pm 291 11 G 17 79° 39% - - 52° 87.1° 58.2° - - -
5/23 3:30pm 298 11 G 18 79° 35% - - 49° 87.1° 58.2° - - -
5/23 3:20pm 280 11 G 15 81° 29% - - 45° 87.1° 58.2° - - -
5/23 3:10pm 279 11 G 17 82° 23% - - 40° 87.1° 58.2° - - -
5/23 3:00pm 294 11 G 18 82° 19% - - 36° 87.1° 58.2° - - -
5/23 2:50pm 295 11 G 18 83° 19% - - 37° 87.1° 58.2° - - -
5/23 2:40pm 289 11 G 18 83° 18% - - 35° 87.1° 58.2° - - -
5/23 2:30pm 296 11 G 16 83° 19% - - 36° 87.1° 58.2° - - -
5/23 2:20pm 296 10 G 18 84° 18% - - 36° 87.1° 58.2° - - -
5/23 2:10pm 278 10 G 18 83° 17% - - 34° 87.1° 58.2° - - -
5/23 2:00pm 277 10 G 19 84° 18% - - 36° 87.1° 58.2° - - -
5/23 1:50pm 293 10 G 16 83° 21% - - 39° 87.1° 58.2° - - -
5/23 1:40pm 292 12 G 19 83° 20% - - 38° 87.1° 58.2° - - -
5/23 1:30pm 298 12 G 18 83° 22% - - 40° 87.1° 58.2° - - -
5/23 1:20pm 276 12 G 17 83° 22% - - 40° 87.1° 58.2° - - -
5/23 1:10pm 280 10 G 17 84° 20% - - 39° 87.1° 58.2° - - -
5/23 1:00pm 302 9 G 16 84° 19% - - 37° 87.1° 58.2° - - -
5/23 12:50pm 292 11 G 17 84° 19% - - 37° 87.1° 58.2° - - -
5/23 12:40pm 286 10 G 16 85° 17% - - 35° 87.1° 58.2° - - -
5/23 12:30pm 256 4 G 10 86° 14% - - 31° 87.1° 58.2° - - -
5/23 12:20pm 309 5 G 9 85° 14% - - 31° 87.1° 58.2° - - -
5/23 12:10pm 291 9 G 16 85° 14% - - 30° 87.1° 58.2° - - -
5/23 12:00pm 292 6 G 11 85° 13% - - 29° 87.1° 58.2° - - -
5/23 11:50am 336 5 G 14 86° 12% - - 27° 87.1° 58.2° - - -
5/23 11:40am 95 5 G 12 86° 11% - - 26° 87.1° 58.2° - - -
5/23 11:30am 179 4 G 9 86° 12% - - 27° 86.7° 58.2° - - -
5/23 11:20am 159 7 G 13 86° 11% - - 26° 86.4° 58.2° - - -
5/23 11:10am 174 5 G 10 86° 11% - - 26° 86.4° 58.2° - - -
5/23 11:00am 190 5 G 11 86° 11% - - 25° 86.3° 58.2° - - -
5/23 10:50am 192 7 G 14 85° 11% - - 25° 86.1° 58.2° - - -
5/23 10:40am 183 6 G 11 85° 11% - - 25° 85.7° 58.2° - - -
5/23 10:30am 167 6 G 12 85° 12% - - 26° 85.4° 58.2° - - -
5/23 10:20am 205 5 G 11 84° 11% - - 25° 85.2° 58.2° - - -
5/23 10:10am 190 5 G 9 85° 12% - - 26° 85.2° 58.2° - - -
5/23 10:00am 163 6 G 12 84° 12% - - 26° 85.1° 58.2° - - -
5/23 9:50am 122 5 G 8 85° 11% - - 24° 85.1° 58.2° - - -
5/23 9:40am 153 3 G 6 84° 13% - - 27° 84.9° 58.2° - - -
5/23 9:30am 287 3 G 7 83° 13% - - 28° 83.4° 58.2° - - -
5/23 9:20am 307 2 G 4 82° 14% - - 28° 82.7° 58.2° - - -
5/23 9:10am 305 2 G 3 81° 15% - - 30° 82° 58.2° - - -
5/23 9:00am 307 2 G 4 80° 20% - - 36° 80.7° 58.2° - - -
5/23 8:50am 311 2 G 3 78° 26% - - 40° 79.2° 58.2° - - -
5/23 8:40am 315 1 G 2 77° 27% - - 40° 78° 58.2° - - -
5/23 8:30am 323 1 G 2 75° 28% - - 40° 76.3° 58.2° - - -
5/23 8:20am 329 1 G 2 72° 30% - - 39° 74.4° 58.2° - - -
5/23 8:10am 337 2 G 3 70° 30% - - 37° 70.8° 58.2° - - -
5/23 8:00am 340 2 G 3 69° 32% - - 38° 68.9° 58.2° - - -
5/23 7:50am 332 3 G 3 68° 28% - - 34° 68.7° 58.2° - - -
5/23 7:40am 333 3 G 4 67° 30% - - 35° 67.9° 58.2° - - -
5/23 7:30am 339 3 G 3 66° 30% - - 34° 67° 58.2° - - -
5/23 7:20am 341 3 G 3 67° 30% - - 34° 67° 58.2° - - -
5/23 7:10am 351 2 G 4 66° 29% - - 33° 66.5° 58.2° - - -
5/23 7:00am 345 2 G 3 65° 28% - - 31° 65.5° 58.2° - - -
5/23 6:50am 337 3 G 4 64° 27% - - 30° 64.6° 58.2° - - -
5/23 6:40am 335 4 G 5 64° 26% - - 28° 63.8° 58.2° - - -
5/23 6:30am 327 3 G 4 63° 24% - - 26° 63.5° 58.2° - - -
5/23 6:20am 331 3 G 4 62° 25% - - 26° 63.3° 58.2° - - -
5/23 6:10am 331 3 G 4 61° 25% - - 25° 63.3° 58.2° - - -
5/23 6:00am 334 3 G 4 61° 25% - - 25° 63.3° 58.2° - - -